createdAt,value
2023-01-21T00:01:08.113Z,4.03
2023-01-21T00:06:12.341Z,4.03
2023-01-21T00:11:15.714Z,5.18
2023-01-21T00:16:15.487Z,3.85
2023-01-21T00:21:17.537Z,4.53
2023-01-21T00:26:16.991Z,4.57
2023-01-21T00:31:15.436Z,4.82
2023-01-21T00:36:20.782Z,4.32
2023-01-21T00:41:24.730Z,4.45
2023-01-21T00:46:23.305Z,3.78
2023-01-21T00:51:24.149Z,4.70
2023-01-21T00:56:25.299Z,4.13
2023-01-21T01:01:24.097Z,3.92
2023-01-21T01:06:25.261Z,4.75
2023-01-21T01:11:27.295Z,4.40
2023-01-21T01:16:26.564Z,5.00
2023-01-21T01:21:26.485Z,5.28
2023-01-21T01:26:28.611Z,4.93
2023-01-21T01:31:31.476Z,5.10
2023-01-21T01:36:31.591Z,4.67
2023-01-21T01:41:35.581Z,5.22
2023-01-21T01:46:36.171Z,4.47
2023-01-21T01:51:47.990Z,5.35
2023-01-21T01:56:50.235Z,4.47
2023-01-21T02:01:53.220Z,4.60
2023-01-21T02:06:55.943Z,4.73
2023-01-21T02:11:55.045Z,4.53
2023-01-21T02:17:17.692Z,4.70
2023-01-21T02:22:19.783Z,4.07
2023-01-21T02:27:45.903Z,4.13
2023-01-21T02:33:19.270Z,4.32
2023-01-21T02:38:24.868Z,4.23
2023-01-21T02:44:04.255Z,4.07
2023-01-21T02:49:23.252Z,5.03
2023-01-21T02:54:40.789Z,4.85
2023-01-21T02:59:47.571Z,4.65
2023-01-21T03:05:10.205Z,4.60
2023-01-21T03:10:26.834Z,4.25
2023-01-21T03:15:56.512Z,4.30
2023-01-21T03:21:20.938Z,5.60
2023-01-21T03:26:32.308Z,5.20
2023-01-21T03:31:34.227Z,4.40
2023-01-21T03:36:42.769Z,4.32
2023-01-21T03:41:42.278Z,4.72
2023-01-21T03:46:45.459Z,4.57
2023-01-21T03:51:49.309Z,4.18
2023-01-21T03:56:49.777Z,4.93
2023-01-21T04:01:49.879Z,4.82
2023-01-21T04:06:50.123Z,6.05
2023-01-21T04:11:50.799Z,7.15
2023-01-21T04:16:51.098Z,6.07
2023-01-21T04:22:13.895Z,5.43
2023-01-21T04:27:11.767Z,5.88
2023-01-21T04:32:13.371Z,6.88
2023-01-21T04:37:12.038Z,6.40
2023-01-21T04:42:14.200Z,6.47
2023-01-21T04:47:17.509Z,7.03
2023-01-21T04:52:17.989Z,9.23
2023-01-21T04:57:17.519Z,7.80
2023-01-21T05:02:17.855Z,8.15
2023-01-21T05:07:19.575Z,8.90
2023-01-21T05:12:24.129Z,7.70
2023-01-21T05:17:24.070Z,7.13
2023-01-21T05:22:26.332Z,8.60
2023-01-21T05:27:30.158Z,7.78
2023-01-21T05:32:33.326Z,9.68
2023-01-21T05:37:35.465Z,9.10
2023-01-21T05:42:36.151Z,10.75
2023-01-21T05:47:36.546Z,8.40
2023-01-21T05:52:39.311Z,10.50
2023-01-21T05:57:39.087Z,16.20
2023-01-21T06:02:39.582Z,19.67
2023-01-21T06:07:58.495Z,9.00
2023-01-21T06:12:57.227Z,14.90
2023-01-21T06:17:56.020Z,13.85
2023-01-21T06:22:54.808Z,11.15
2023-01-21T06:28:02.407Z,14.23
2023-01-21T06:33:06.634Z,15.45
2023-01-21T06:38:06.091Z,13.25
2023-01-21T06:43:05.028Z,12.15
2023-01-21T06:48:02.716Z,12.77
2023-01-21T06:53:04.289Z,10.85
2023-01-21T06:58:04.256Z,7.07
2023-01-21T07:03:05.088Z,10.43
2023-01-21T07:08:04.231Z,6.30
2023-01-21T07:13:06.452Z,7.40
2023-01-21T07:18:06.341Z,5.38
2023-01-21T07:23:07.676Z,5.97
2023-01-21T07:28:06.692Z,7.47
2023-01-21T07:33:10.656Z,9.88
2023-01-21T07:38:09.040Z,5.03
2023-01-21T07:43:11.252Z,7.22
2023-01-21T07:48:13.675Z,5.53
2023-01-21T07:53:15.306Z,5.63
2023-01-21T07:58:27.566Z,8.30
2023-01-21T08:03:28.302Z,4.70
2023-01-21T08:08:28.479Z,6.43
2023-01-21T08:13:28.547Z,9.60
2023-01-21T08:18:29.662Z,7.38
2023-01-21T08:23:31.047Z,5.20
2023-01-21T08:28:30.584Z,4.18
2023-01-21T08:33:33.521Z,3.97
2023-01-21T08:38:34.017Z,3.90
2023-01-21T08:43:34.720Z,4.75
2023-01-21T08:48:34.900Z,4.88
2023-01-21T08:53:34.719Z,7.22
2023-01-21T08:58:34.005Z,5.70
2023-01-21T09:03:34.518Z,7.25
2023-01-21T09:08:36.697Z,5.78
2023-01-21T09:13:39.524Z,5.00
2023-01-21T09:18:38.307Z,5.53
2023-01-21T09:23:40.070Z,5.13
2023-01-21T09:28:42.661Z,6.38
2023-01-21T09:33:46.369Z,5.28
2023-01-21T09:38:46.865Z,4.35
2023-01-21T09:43:55.309Z,5.50
2023-01-21T09:48:56.483Z,6.60
2023-01-21T09:53:58.799Z,8.77
2023-01-21T09:59:10.206Z,7.00
2023-01-21T10:04:28.024Z,6.13
2023-01-21T10:09:49.934Z,9.60
2023-01-21T10:20:55.725Z,8.35
2023-01-21T10:25:56.788Z,12.93
2023-01-21T10:31:05.149Z,11.20
2023-01-21T10:36:28.516Z,7.05
2023-01-21T10:41:48.488Z,10.05
2023-01-21T10:47:08.121Z,9.55
2023-01-21T10:52:17.273Z,11.27
2023-01-21T10:57:51.896Z,10.63
2023-01-21T11:02:55.226Z,13.50
2023-01-21T11:07:54.500Z,11.00
2023-01-21T11:12:54.676Z,8.02
2023-01-21T11:18:01.822Z,6.27
2023-01-21T11:23:07.273Z,8.70
2023-01-21T11:28:24.458Z,6.32
2023-01-21T11:33:28.009Z,10.63
2023-01-21T11:38:37.227Z,11.97
2023-01-21T11:43:59.209Z,7.47
2023-01-21T11:49:21.418Z,10.40
2023-01-21T11:54:26.720Z,7.30
2023-01-21T11:59:31.321Z,8.80
2023-01-21T12:04:33.231Z,9.82
2023-01-21T12:09:34.222Z,5.63
2023-01-21T12:15:00.027Z,11.70
2023-01-21T12:20:12.655Z,7.25
2023-01-21T12:25:50.597Z,6.05
2023-01-21T12:31:22.100Z,11.80
2023-01-21T12:36:23.478Z,6.63
2023-01-21T12:41:28.821Z,5.13
2023-01-21T12:46:40.404Z,7.10
2023-01-21T12:51:45.623Z,8.75
2023-01-21T12:56:47.738Z,7.85
2023-01-21T13:02:21.307Z,7.60
2023-01-21T13:07:38.586Z,22.83
2023-01-21T13:12:39.472Z,15.98
2023-01-21T13:17:41.749Z,9.05
2023-01-21T13:23:13.969Z,9.45
2023-01-21T13:28:35.438Z,8.35
2023-01-21T13:33:37.679Z,10.57
2023-01-21T13:38:48.294Z,17.95
2023-01-21T13:44:15.624Z,28.45
2023-01-21T13:49:50.589Z,17.15
2023-01-21T13:55:07.518Z,14.88
2023-01-21T14:00:26.967Z,16.92
2023-01-21T14:05:39.644Z,17.73
2023-01-21T14:10:51.633Z,12.38
2023-01-21T14:16:02.845Z,13.93
2023-01-21T14:21:11.495Z,15.95
2023-01-21T14:26:28.246Z,12.32
2023-01-21T14:31:37.240Z,10.30
2023-01-21T14:37:03.230Z,8.95
2023-01-21T14:42:20.489Z,17.60
2023-01-21T14:47:31.380Z,6.28
2023-01-21T14:52:56.148Z,9.32
2023-01-21T14:57:56.797Z,11.05
2023-01-21T15:03:27.669Z,10.20
2023-01-21T15:08:32.992Z,11.52
2023-01-21T15:13:34.238Z,14.25
2023-01-21T15:18:45.304Z,16.05
2023-01-21T15:23:50.356Z,15.50
2023-01-21T15:28:49.429Z,21.70
2023-01-21T15:34:00.283Z,9.63
2023-01-21T15:39:16.851Z,12.27
2023-01-21T15:44:40.879Z,10.05
2023-01-21T15:49:59.163Z,9.95
2023-01-21T15:55:18.015Z,7.50
2023-01-21T16:00:35.248Z,6.78
2023-01-21T16:05:58.133Z,14.27
2023-01-21T16:11:13.232Z,13.52
2023-01-21T16:16:26.276Z,7.38
2023-01-21T16:21:32.343Z,11.90
2023-01-21T16:26:33.172Z,11.77
2023-01-21T16:31:33.604Z,22.25
2023-01-21T16:36:41.920Z,11.80
2023-01-21T16:41:43.645Z,10.85
2023-01-21T16:46:51.176Z,13.52
2023-01-21T16:52:06.055Z,9.82
2023-01-21T16:57:34.340Z,14.63
2023-01-21T17:02:38.600Z,15.13
2023-01-21T17:07:51.184Z,12.38
2023-01-21T17:13:05.471Z,15.77
2023-01-21T17:18:09.877Z,23.50
2023-01-21T17:23:33.083Z,10.63
2023-01-21T17:28:49.347Z,13.87
2023-01-21T17:34:06.243Z,13.77
2023-01-21T17:39:09.889Z,13.18
2023-01-21T17:44:33.040Z,14.63
2023-01-21T17:49:35.913Z,11.43
2023-01-21T17:55:01.753Z,15.55
2023-01-21T18:00:27.883Z,15.52
2023-01-21T18:05:34.258Z,26.02
2023-01-21T18:10:50.979Z,14.82
2023-01-21T18:16:03.380Z,15.43
2023-01-21T18:21:19.677Z,15.95
2023-01-21T18:26:23.753Z,14.10
2023-01-21T18:31:31.135Z,9.07
2023-01-21T18:36:36.955Z,13.25
2023-01-21T18:41:44.452Z,12.40
2023-01-21T18:46:48.602Z,15.55
2023-01-21T18:56:59.651Z,23.15
2023-01-21T19:02:11.456Z,15.63
2023-01-21T19:07:21.173Z,10.18
2023-01-21T19:12:23.483Z,11.18
2023-01-21T19:17:31.286Z,19.70
2023-01-21T19:22:33.857Z,12.30
2023-01-21T19:27:49.586Z,16.83
2023-01-21T19:32:57.392Z,9.25
2023-01-21T19:38:13.902Z,14.43
2023-01-21T19:43:27.057Z,6.50
2023-01-21T19:48:30.468Z,20.27
2023-01-21T19:53:33.120Z,14.38
2023-01-21T19:58:32.685Z,9.38
2023-01-21T20:03:32.854Z,9.45
2023-01-21T20:08:32.491Z,11.30
2023-01-21T20:13:37.172Z,13.70
2023-01-21T20:18:36.326Z,16.23
2023-01-21T20:23:41.665Z,16.75
2023-01-21T20:29:16.725Z,16.45
2023-01-21T20:34:28.488Z,17.73
2023-01-21T20:39:50.024Z,11.10
2023-01-21T20:44:53.440Z,9.77
2023-01-21T20:49:55.288Z,11.00
2023-01-21T20:55:04.891Z,12.82
2023-01-21T21:00:05.547Z,11.30
2023-01-21T21:05:03.333Z,12.68
2023-01-21T21:10:04.156Z,11.68
2023-01-21T21:15:06.732Z,10.77
2023-01-21T21:20:22.173Z,4.22
2023-01-21T21:25:24.214Z,5.93
2023-01-21T21:30:30.980Z,8.18
2023-01-21T21:35:42.197Z,5.60
2023-01-21T21:40:41.358Z,7.40
2023-01-21T21:46:02.583Z,4.38
2023-01-21T21:51:00.382Z,3.83
2023-01-21T21:56:24.973Z,9.60
2023-01-21T22:02:12.432Z,7.63
2023-01-21T22:06:54.078Z,6.18
2023-01-21T22:11:57.204Z,3.00
2023-01-21T22:16:59.047Z,7.25
2023-01-21T22:21:57.313Z,2.42
2023-01-21T22:27:01.178Z,1.45
2023-01-21T22:32:39.648Z,2.15
2023-01-21T22:37:47.333Z,2.15
2023-01-21T22:42:57.506Z,1.40
2023-01-21T22:48:04.964Z,3.15
2023-01-21T22:53:20.248Z,6.75
2023-01-21T22:58:27.201Z,3.03
2023-01-21T23:03:34.469Z,5.20
2023-01-21T23:09:02.317Z,2.95
2023-01-21T23:14:04.598Z,2.15
2023-01-21T23:19:10.759Z,4.50
2023-01-21T23:24:14.094Z,6.88
2023-01-21T23:29:16.077Z,5.93
2023-01-21T23:34:16.863Z,7.55
2023-01-21T23:39:16.225Z,4.93
2023-01-21T23:44:18.188Z,5.50
2023-01-21T23:49:23.066Z,8.43
2023-01-21T23:54:24.092Z,7.03
2023-01-21T23:59:23.846Z,10.35
